Time;durP1;ratioP1;P1;durP2;ratioP2;P2;SDS_P1;SDS_P2;PMS_P1;PMS_P2;Temp;Humidity;BMP_temperature;BMP_pressure;BME280_temperature;BME280_humidity;BME280_pressure;Samples;Min_cycle;Max_cycle;Signal;HPM_P1;HPM_P2
2022/03/08 00:01:17;;;;;;;22.40;21.60;;;17.40;41.80;;;;;;5051169;28;20449;-44
2022/03/08 00:03:43;;;;;;;22.77;21.97;;;17.40;41.90;;;;;;5051313;28;20878;-44
2022/03/08 00:06:10;;;;;;;23.47;22.57;;;17.30;41.90;;;;;;5051049;28;20448;-45
2022/03/08 00:08:37;;;;;;;22.33;21.43;;;17.30;41.90;;;;;;5051170;28;20452;-45
2022/03/08 00:11:04;;;;;;;22.20;21.40;;;17.30;42.00;;;;;;5050942;28;20452;-45
2022/03/08 00:13:31;;;;;;;22.10;21.30;;;17.20;42.00;;;;;;5050562;28;20448;-45
2022/03/08 00:15:59;;;;;;;22.60;21.67;;;17.20;42.00;;;;;;5051400;28;20468;-44
2022/03/08 00:18:26;;;;;;;22.50;21.70;;;17.20;42.10;;;;;;5051125;28;20452;-44
2022/03/08 00:20:53;;;;;;;22.90;21.90;;;17.20;42.20;;;;;;5051322;28;20794;-45
2022/03/08 00:23:20;;;;;;;23.00;22.00;;;17.10;42.20;;;;;;5051268;28;20484;-44
2022/03/08 00:25:46;;;;;;;22.10;21.30;;;17.00;42.20;;;;;;5050777;28;20440;-44
2022/03/08 00:28:13;;;;;;;22.63;21.73;;;17.00;42.30;;;;;;5051310;28;20445;-44
2022/03/08 00:30:40;;;;;;;22.80;21.90;;;17.00;42.30;;;;;;5050971;28;20445;-45
2022/03/08 00:33:08;;;;;;;22.47;21.57;;;16.90;42.30;;;;;;5051012;28;20443;-45
2022/03/08 00:35:35;;;;;;;22.00;21.20;;;16.90;42.40;;;;;;5053280;28;20472;-45
2022/03/08 00:38:02;;;;;;;22.40;21.50;;;16.90;42.40;;;;;;5055240;28;20450;-44
2022/03/08 00:40:29;;;;;;;22.37;21.57;;;16.90;42.50;;;;;;5054401;28;20451;-44
2022/03/08 00:42:56;;;;;;;22.20;21.40;;;16.90;42.50;;;;;;5054779;28;20804;-44
2022/03/08 00:45:22;;;;;;;22.10;21.30;;;16.80;42.50;;;;;;5054920;28;20479;-45
2022/03/08 00:47:49;;;;;;;22.43;21.53;;;16.70;42.60;;;;;;5054769;28;20467;-44
2022/03/08 00:50:21;;;;;;;22.17;21.37;;;16.70;42.70;;;;;;5054494;28;20444;-46
2022/03/08 00:52:49;;;;;;;22.80;21.90;;;16.70;42.80;;;;;;5035275;28;20442;-44
2022/03/08 00:55:19;;;;;;;21.90;21.10;;;16.60;43.30;;;;;;5052572;28;20478;-44
2022/03/08 00:57:46;;;;;;;22.43;21.53;;;16.60;42.90;;;;;;5054828;28;20998;-44
2022/03/08 01:00:17;;;;;;;22.73;21.83;;;16.60;42.90;;;;;;5054648;28;20447;-44
2022/03/08 01:02:44;;;;;;;22.83;21.83;;;16.50;42.90;;;;;;5055026;28;20452;-44
2022/03/08 01:05:11;;;;;;;23.43;22.53;;;16.50;42.90;;;;;;5054672;28;20487;-44
2022/03/08 01:07:39;;;;;;;22.60;21.67;;;16.50;43.00;;;;;;5054501;28;20455;-44
2022/03/08 01:10:09;;;;;;;22.57;21.70;;;16.50;43.00;;;;;;5054515;28;20826;-44
2022/03/08 01:12:36;;;;;;;21.70;20.80;;;16.40;43.00;;;;;;5054713;28;20452;-44
2022/03/08 01:15:06;;;;;;;22.23;21.33;;;16.40;43.10;;;;;;5054349;28;20817;-48
2022/03/08 01:17:33;;;;;;;22.13;21.30;;;16.40;43.10;;;;;;5054796;28;20453;-44
2022/03/08 01:20:00;;;;;;;22.30;21.50;;;16.40;43.20;;;;;;5054434;28;20467;-44
2022/03/08 01:22:26;;;;;;;22.13;21.30;;;16.30;43.10;;;;;;5054435;28;20449;-44
2022/03/08 01:24:54;;;;;;;22.70;21.70;;;16.30;43.20;;;;;;5053840;28;20507;-42
2022/03/08 01:27:21;;;;;;;22.23;21.33;;;16.30;43.20;;;;;;5054743;28;20444;-43
2022/03/08 01:29:48;;;;;;;21.90;21.10;;;16.20;43.20;;;;;;5054039;28;20445;-45
2022/03/08 01:32:15;;;;;;;22.87;21.97;;;16.20;43.20;;;;;;5053958;28;20449;-43
2022/03/08 01:34:42;;;;;;;21.30;20.50;;;16.20;43.20;;;;;;5053747;28;20846;-43
2022/03/08 01:37:08;;;;;;;22.50;21.53;;;16.20;43.20;;;;;;5054118;28;20451;-43
2022/03/08 01:39:35;;;;;;;21.97;21.17;;;16.20;43.20;;;;;;5053888;28;20471;-43
2022/03/08 01:42:10;;;;;;;23.10;22.20;;;16.20;43.30;;;;;;5053990;28;20440;-42
2022/03/08 01:44:39;;;;;;;22.20;21.40;;;16.10;43.30;;;;;;5053402;28;20515;-43
2022/03/08 01:47:06;;;;;;;23.30;22.40;;;16.10;43.40;;;;;;5053176;28;20445;-42
2022/03/08 01:49:33;;;;;;;21.93;21.13;;;16.10;43.40;;;;;;5053544;28;20456;-43
2022/03/08 01:52:00;;;;;;;22.80;21.90;;;16.10;43.40;;;;;;5053708;28;20444;-43
2022/03/08 01:54:27;;;;;;;22.67;21.87;;;16.10;43.40;;;;;;5053532;28;20475;-46
2022/03/08 01:56:53;;;;;;;22.40;21.50;;;16.00;43.40;;;;;;5053742;28;20452;-43
2022/03/08 01:59:21;;;;;;;22.80;21.90;;;16.00;43.40;;;;;;5053408;28;20823;-42
2022/03/08 02:01:48;;;;;;;22.67;21.77;;;16.00;43.50;;;;;;5053645;28;20444;-43
2022/03/08 02:04:15;;;;;;;22.60;21.70;;;16.00;43.50;;;;;;5053555;28;20830;-43
2022/03/08 02:06:44;;;;;;;22.73;21.83;;;16.00;43.60;;;;;;5053369;28;20456;-42
2022/03/08 02:09:11;;;;;;;22.60;21.70;;;16.00;43.60;;;;;;5053049;28;20455;-46
2022/03/08 02:11:38;;;;;;;22.50;21.70;;;15.90;43.50;;;;;;5053160;28;20942;-43
2022/03/08 02:14:05;;;;;;;22.10;21.30;;;15.90;43.60;;;;;;5053225;28;20468;-43
2022/03/08 02:16:33;;;;;;;21.97;21.17;;;15.90;44.10;;;;;;5053209;28;20444;-43
2022/03/08 02:19:00;;;;;;;22.00;21.13;;;15.90;43.60;;;;;;5053004;28;20809;-43
2022/03/08 02:21:28;;;;;;;22.83;21.80;;;15.80;43.60;;;;;;5053246;28;20475;-43
2022/03/08 02:23:55;;;;;;;22.00;21.20;;;15.80;43.60;;;;;;5052922;28;20588;-43
2022/03/08 02:26:22;;;;;;;21.90;21.10;;;15.80;43.60;;;;;;5052683;28;20449;-44
2022/03/08 02:28:49;;;;;;;22.87;21.97;;;15.80;43.60;;;;;;5052957;28;20445;-43
2022/03/08 02:31:17;;;;;;;22.93;22.03;;;15.80;43.70;;;;;;5053481;28;20445;-46
2022/03/08 02:33:44;;;;;;;21.63;20.80;;;15.80;43.70;;;;;;5052379;28;20468;-43
2022/03/08 02:36:11;;;;;;;21.50;20.70;;;15.70;43.70;;;;;;5052813;28;20822;-43
2022/03/08 02:38:39;;;;;;;22.23;21.43;;;15.70;43.70;;;;;;5052550;28;20452;-47
2022/03/08 02:41:06;;;;;;;21.60;20.80;;;15.70;43.80;;;;;;5052485;28;20455;-47
2022/03/08 02:43:32;;;;;;;22.40;21.50;;;15.70;43.80;;;;;;5052120;28;20448;-43
2022/03/08 02:45:59;;;;;;;21.73;20.93;;;15.70;43.80;;;;;;5052622;28;20455;-43
2022/03/08 02:48:26;;;;;;;22.90;22.00;;;15.60;43.80;;;;;;5052638;28;20453;-45
2022/03/08 02:50:53;;;;;;;22.60;21.80;;;15.60;43.80;;;;;;5052739;28;20966;-43
2022/03/08 02:53:20;;;;;;;21.53;20.73;;;15.60;43.90;;;;;;5052530;28;20444;-46
2022/03/08 02:55:48;;;;;;;22.07;21.17;;;15.60;43.80;;;;;;5052518;28;20447;-43
2022/03/08 02:58:15;;;;;;;24.77;23.77;;;15.60;43.90;;;;;;5052188;28;20830;-43
2022/03/08 03:00:42;;;;;;;22.77;21.87;;;15.60;43.90;;;;;;5052526;28;20621;-42
2022/03/08 03:03:10;;;;;;;22.10;21.27;;;15.60;44.00;;;;;;5052366;28;20440;-43
2022/03/08 03:05:37;;;;;;;22.80;21.90;;;15.50;43.90;;;;;;5052050;28;20476;-44
2022/03/08 03:08:06;;;;;;;23.10;22.10;;;15.50;43.90;;;;;;5052273;28;20441;-42
2022/03/08 03:10:33;;;;;;;23.00;22.10;;;15.50;44.00;;;;;;5052115;28;20448;-45
2022/03/08 03:13:01;;;;;;;22.70;21.80;;;15.50;44.00;;;;;;5052497;28;20440;-43
2022/03/08 03:15:30;;;;;;;24.00;23.10;;;15.50;44.10;;;;;;5051994;28;20468;-42
2022/03/08 03:17:57;;;;;;;22.30;21.50;;;15.50;44.10;;;;;;5051298;28;20441;-46
2022/03/08 03:20:26;;;;;;;23.40;22.50;;;15.50;44.10;;;;;;5051214;28;20444;-43
2022/03/08 03:22:53;;;;;;;22.60;21.70;;;15.50;44.10;;;;;;5051417;28;20440;-45
2022/03/08 03:25:20;;;;;;;22.20;21.33;;;15.40;44.10;;;;;;5051571;28;20480;-43
2022/03/08 03:27:47;;;;;;;23.37;22.47;;;15.40;44.10;;;;;;5052251;28;20455;-43
2022/03/08 03:30:18;;;;;;;22.90;22.00;;;15.40;44.20;;;;;;5051617;28;20451;-44
2022/03/08 03:32:45;;;;;;;23.70;22.80;;;15.40;44.20;;;;;;5051912;28;20971;-43
2022/03/08 03:35:12;;;;;;;22.80;22.00;;;15.40;44.30;;;;;;5051588;28;20465;-43
2022/03/08 03:37:40;;;;;;;23.37;22.47;;;15.30;44.20;;;;;;5051440;28;20444;-46
2022/03/08 03:40:08;;;;;;;23.73;22.83;;;15.30;44.30;;;;;;5051632;28;20452;-43
2022/03/08 03:42:35;;;;;;;23.07;22.17;;;15.30;44.20;;;;;;5051676;28;20828;-42
2022/03/08 03:45:02;;;;;;;22.50;21.70;;;15.30;44.30;;;;;;5051277;28;21005;-43
2022/03/08 03:47:31;;;;;;;23.33;22.40;;;15.30;44.30;;;;;;5050844;28;20455;-45
2022/03/08 03:49:57;;;;;;;22.77;21.87;;;15.30;44.30;;;;;;5051557;28;20445;-45
2022/03/08 03:52:25;;;;;;;23.13;22.27;;;15.30;44.30;;;;;;5051561;28;20444;-43
2022/03/08 03:54:51;;;;;;;22.43;21.63;;;15.30;44.30;;;;;;5051722;28;20475;-44
2022/03/08 03:57:18;;;;;;;22.57;21.77;;;15.30;44.40;;;;;;5051863;28;20452;-43
2022/03/08 03:59:45;;;;;;;23.60;22.70;;;15.20;44.30;;;;;;5051284;28;20444;-43
2022/03/08 04:02:11;;;;;;;22.57;21.67;;;15.20;44.30;;;;;;5051689;28;20455;-43
2022/03/08 04:04:39;;;;;;;23.63;22.73;;;15.20;44.40;;;;;;5051224;28;20487;-43
2022/03/08 04:07:06;;;;;;;23.70;22.80;;;15.20;44.40;;;;;;5051508;28;20946;-43
2022/03/08 04:09:33;;;;;;;24.37;23.47;;;15.20;44.40;;;;;;5050283;28;20830;-43
2022/03/08 04:12:00;;;;;;;24.00;22.90;;;15.20;44.50;;;;;;5051332;28;20445;-47
2022/03/08 04:14:27;;;;;;;24.50;23.50;;;15.20;44.60;;;;;;5051311;28;20464;-43
2022/03/08 04:16:54;;;;;;;24.17;23.27;;;15.10;44.50;;;;;;5051246;28;20455;-42
2022/03/08 04:19:21;;;;;;;23.57;22.67;;;15.10;44.50;;;;;;5051068;28;20451;-43
2022/03/08 04:21:49;;;;;;;24.27;23.37;;;15.10;44.60;;;;;;5051508;28;20444;-43
2022/03/08 04:24:16;;;;;;;22.90;22.10;;;15.10;44.60;;;;;;5051036;28;20491;-42
2022/03/08 04:26:43;;;;;;;24.70;23.77;;;15.10;44.60;;;;;;5051149;28;20452;-44
2022/03/08 04:29:09;;;;;;;24.27;23.27;;;15.10;44.60;;;;;;5050723;28;20467;-43
2022/03/08 04:31:36;;;;;;;23.50;22.50;;;15.10;44.60;;;;;;5051338;28;20452;-43
2022/03/08 04:34:03;;;;;;;24.23;23.13;;;15.00;44.60;;;;;;5051080;28;20468;-43
2022/03/08 04:36:29;;;;;;;22.93;22.00;;;15.00;44.60;;;;;;5050632;28;20440;-43
2022/03/08 04:38:58;;;;;;;22.70;21.90;;;15.00;44.60;;;;;;5050766;28;20451;-43
2022/03/08 04:41:24;;;;;;;23.97;23.07;;;15.00;44.60;;;;;;5051031;28;20448;-46
2022/03/08 04:43:51;;;;;;;23.07;22.17;;;15.00;44.70;;;;;;5050530;28;20476;-46
2022/03/08 04:46:18;;;;;;;23.20;22.30;;;15.00;44.70;;;;;;5050847;28;20476;-42
2022/03/08 04:48:45;;;;;;;23.10;22.20;;;15.00;44.70;;;;;;5050942;28;20444;-43
2022/03/08 04:51:11;;;;;;;24.20;23.20;;;15.00;44.70;;;;;;5051071;28;20455;-43
2022/03/08 04:53:39;;;;;;;23.83;22.93;;;15.00;44.70;;;;;;5050610;28;20471;-44
2022/03/08 04:56:07;;;;;;;24.00;23.00;;;14.90;44.60;;;;;;5050896;28;20502;-43
2022/03/08 04:58:33;;;;;;;23.50;22.50;;;14.90;44.70;;;;;;5050687;28;20543;-43
2022/03/08 05:01:00;;;;;;;25.40;24.40;;;14.90;44.70;;;;;;5050721;28;20946;-43
2022/03/08 05:03:27;;;;;;;25.40;24.40;;;14.90;44.70;;;;;;5050769;28;20953;-43
2022/03/08 05:05:54;;;;;;;24.80;23.80;;;14.90;44.80;;;;;;5050950;28;20484;-43
2022/03/08 05:08:21;;;;;;;25.80;24.80;;;14.90;44.80;;;;;;5050399;28;20448;-43
2022/03/08 05:10:47;;;;;;;26.63;25.53;;;14.90;44.80;;;;;;5050952;28;20948;-44
2022/03/08 05:13:15;;;;;;;24.83;23.83;;;14.90;44.80;;;;;;5050815;28;20448;-43
2022/03/08 05:15:44;;;;;;;26.33;25.33;;;14.80;44.80;;;;;;5050435;28;20958;-43
2022/03/08 05:18:10;;;;;;;24.87;23.87;;;14.80;44.80;;;;;;5050788;28;20455;-43
2022/03/08 05:20:37;;;;;;;24.30;23.30;;;14.80;44.80;;;;;;5050574;28;20467;-43
2022/03/08 05:23:04;;;;;;;25.33;24.23;;;14.80;44.90;;;;;;5053498;28;20463;-46
2022/03/08 05:25:31;;;;;;;26.23;25.00;;;14.80;46.20;;;;;;5054299;28;20499;-43
2022/03/08 05:27:57;;;;;;;29.33;27.00;;;14.80;48.80;;;;;;5053971;28;20469;-43
2022/03/08 05:30:26;;;;;;;28.03;26.13;;;14.90;53.80;;;;;;5054090;28;20965;-43
2022/03/08 05:32:53;;;;;;;29.87;26.57;;;14.90;64.20;;;;;;5054088;28;20444;-43
2022/03/08 05:35:20;;;;;;;30.40;27.20;;;15.00;90.50;;;;;;5053893;28;20488;-43
2022/03/08 05:37:47;;;;;;;28.03;26.20;;;15.00;99.90;;;;;;5054132;28;20475;-43
2022/03/08 05:40:14;;;;;;;27.53;25.33;;;14.90;99.90;;;;;;5053288;28;20440;-42
2022/03/08 05:42:41;;;;;;;26.47;25.27;;;15.00;94.60;;;;;;5053957;28;20449;-43
2022/03/08 05:45:09;;;;;;;28.00;26.33;;;15.00;91.20;;;;;;5053886;28;20491;-43
2022/03/08 05:47:39;;;;;;;27.10;25.40;;;14.90;88.20;;;;;;5054096;28;20930;-43
2022/03/08 05:50:07;;;;;;;27.77;26.07;;;15.10;90.00;;;;;;5053724;28;20452;-42
2022/03/08 05:52:34;;;;;;;29.90;28.17;;;16.00;83.50;;;;;;5054138;28;20448;-43
2022/03/08 05:55:00;;;;;;;25.67;24.07;;;16.30;74.70;;;;;;5054081;28;20840;-43
2022/03/08 05:57:27;;;;;;;26.40;24.80;;;16.60;69.60;;;;;;5054377;28;20445;-43
2022/03/08 05:59:54;;;;;;;29.63;27.90;;;17.00;66.40;;;;;;5053886;28;20440;-43
2022/03/08 06:02:22;;;;;;;30.13;28.70;;;17.60;62.10;;;;;;5054084;28;20463;-43
2022/03/08 06:04:50;;;;;;;30.50;28.80;;;18.10;58.20;;;;;;5053511;28;20488;-43
2022/03/08 06:07:17;;;;;;;31.80;29.57;;;18.50;55.80;;;;;;5053656;28;20528;-43
2022/03/08 06:09:44;;;;;;;30.00;28.40;;;18.70;53.90;;;;;;5053436;28;20535;-43
2022/03/08 06:12:11;;;;;;;26.80;25.40;;;18.80;52.40;;;;;;5053455;28;20459;-44
2022/03/08 06:14:38;;;;;;;28.40;26.90;;;18.90;51.40;;;;;;5053290;28;20475;-41
2022/03/08 06:17:06;;;;;;;27.23;25.40;;;19.00;50.60;;;;;;5053529;28;20448;-40
2022/03/08 06:19:33;;;;;;;26.67;25.27;;;19.10;49.80;;;;;;5053166;28;20452;-42
2022/03/08 06:22:01;;;;;;;28.60;26.87;;;19.20;49.20;;;;;;5053316;28;20452;-43
2022/03/08 06:24:28;;;;;;;29.73;28.23;;;19.20;48.60;;;;;;5053270;28;20475;-42
2022/03/08 06:26:55;;;;;;;29.03;27.53;;;19.30;48.70;;;;;;5053428;28;20440;-43
2022/03/08 06:29:21;;;;;;;28.87;27.50;;;19.40;47.70;;;;;;5053482;28;20432;-44
2022/03/08 06:31:48;;;;;;;28.70;27.03;;;19.40;47.30;;;;;;5053185;28;20482;-43
2022/03/08 06:34:15;;;;;;;27.47;26.07;;;19.40;47.00;;;;;;5052552;28;20457;-42
2022/03/08 06:36:42;;;;;;;28.60;27.00;;;19.40;46.80;;;;;;5053132;28;20926;-43
2022/03/08 06:39:10;;;;;;;27.97;26.67;;;19.40;46.50;;;;;;5053110;28;20440;-43
2022/03/08 06:41:37;;;;;;;30.17;28.77;;;19.40;46.10;;;;;;5052945;28;20448;-44
2022/03/08 06:44:04;;;;;;;28.30;26.90;;;19.40;46.00;;;;;;5052811;28;20472;-48
2022/03/08 06:46:31;;;;;;;28.40;26.87;;;19.40;45.70;;;;;;5053104;28;20480;-44
2022/03/08 06:48:58;;;;;;;28.43;26.60;;;19.40;45.50;;;;;;5052852;28;20448;-45
2022/03/08 06:51:25;;;;;;;28.40;27.23;;;19.40;45.40;;;;;;5052591;28;20452;-44
2022/03/08 06:53:52;;;;;;;29.50;28.10;;;19.40;45.20;;;;;;5052612;28;20472;-45
2022/03/08 06:56:21;;;;;;;27.53;26.13;;;19.40;45.00;;;;;;5052603;28;20440;-42
2022/03/08 06:58:47;;;;;;;29.80;28.30;;;19.40;44.90;;;;;;5052542;28;20558;-47
2022/03/08 07:01:14;;;;;;;28.80;27.50;;;19.40;44.80;;;;;;5052581;28;20451;-43
2022/03/08 07:03:41;;;;;;;28.23;27.00;;;19.30;44.60;;;;;;5052479;28;20862;-42
2022/03/08 07:06:09;;;;;;;29.90;28.50;;;19.30;44.50;;;;;;5052544;28;21009;-42
2022/03/08 07:08:37;;;;;;;29.47;28.33;;;19.30;44.40;;;;;;5052236;28;20454;-42
2022/03/08 07:11:03;;;;;;;28.30;26.90;;;19.20;44.30;;;;;;5052434;28;20475;-40
2022/03/08 07:13:31;;;;;;;26.80;25.70;;;19.20;44.20;;;;;;5052378;28;20502;-42
2022/03/08 07:15:58;;;;;;;27.40;26.10;;;19.20;44.10;;;;;;5052263;28;20440;-43
2022/03/08 07:18:25;;;;;;;26.33;25.23;;;19.20;44.00;;;;;;5052280;28;20480;-43
2022/03/08 07:20:52;;;;;;;28.13;26.93;;;19.20;43.90;;;;;;5052163;28;20819;-41
2022/03/08 07:23:19;;;;;;;26.27;25.17;;;19.20;43.90;;;;;;5052201;28;20444;-45
2022/03/08 07:25:46;;;;;;;28.60;27.30;;;19.20;43.80;;;;;;5051979;28;20488;-43
2022/03/08 07:28:12;;;;;;;26.80;25.33;;;19.10;43.70;;;;;;5052192;28;20452;-44
2022/03/08 07:30:41;;;;;;;25.67;24.47;;;19.10;43.60;;;;;;5051970;28;20818;-44
2022/03/08 07:33:07;;;;;;;25.80;24.70;;;19.10;43.50;;;;;;5052077;28;20965;-45
2022/03/08 07:35:34;;;;;;;27.53;26.23;;;19.10;43.50;;;;;;5051914;28;20806;-43
2022/03/08 07:38:01;;;;;;;25.33;24.33;;;19.10;43.50;;;;;;5051719;28;20445;-43
2022/03/08 07:40:28;;;;;;;26.20;25.03;;;19.10;43.40;;;;;;5051859;28;20459;-46
2022/03/08 07:42:54;;;;;;;26.23;25.03;;;19.00;43.30;;;;;;5052025;28;20445;-43
2022/03/08 07:45:21;;;;;;;26.07;24.97;;;19.00;43.30;;;;;;5051025;28;20491;-42
2022/03/08 07:47:49;;;;;;;27.43;26.23;;;19.00;43.30;;;;;;5051638;28;20444;-42
2022/03/08 07:50:17;;;;;;;26.50;25.40;;;19.00;43.20;;;;;;5051499;28;20475;-43
2022/03/08 07:52:44;;;;;;;27.93;26.63;;;18.90;43.10;;;;;;5051756;28;20543;-51
2022/03/08 07:55:10;;;;;;;28.00;26.70;;;18.90;43.10;;;;;;5051895;28;20455;-45
2022/03/08 07:57:37;;;;;;;27.77;26.47;;;18.90;43.10;;;;;;5051591;28;20444;-42
2022/03/08 08:00:05;;;;;;;27.20;25.90;;;18.90;43.00;;;;;;5051655;28;20436;-46
2022/03/08 08:02:32;;;;;;;26.60;25.40;;;18.90;43.00;;;;;;5051902;28;20460;-46
2022/03/08 08:05:00;;;;;;;27.83;26.53;;;18.80;42.90;;;;;;5051513;28;20521;-43
2022/03/08 08:07:27;;;;;;;29.47;28.10;;;18.80;42.90;;;;;;5051738;28;20607;-44
2022/03/08 08:09:53;;;;;;;27.50;26.30;;;18.80;42.90;;;;;;5051400;28;20440;-43
2022/03/08 08:12:20;;;;;;;27.53;26.37;;;18.80;42.90;;;;;;5051462;28;20929;-45
2022/03/08 08:14:47;;;;;;;25.93;24.83;;;18.70;42.80;;;;;;5051707;28;20456;-43
2022/03/08 08:17:14;;;;;;;28.13;26.93;;;18.70;42.80;;;;;;5051518;28;20442;-43
2022/03/08 08:19:41;;;;;;;28.80;27.60;;;18.70;42.80;;;;;;5051200;28;20803;-45
2022/03/08 08:22:09;;;;;;;26.40;25.20;;;18.70;42.80;;;;;;5051481;28;20813;-43
2022/03/08 08:24:36;;;;;;;27.87;26.67;;;18.70;42.80;;;;;;5051245;28;20996;-41
2022/03/08 08:27:03;;;;;;;28.73;27.63;;;18.60;42.60;;;;;;5051288;28;20570;-44
2022/03/08 08:29:30;;;;;;;28.20;27.00;;;18.60;42.60;;;;;;5051201;28;20444;-42
2022/03/08 08:31:57;;;;;;;27.70;26.50;;;18.60;42.70;;;;;;5051285;28;20818;-42
2022/03/08 08:34:24;;;;;;;29.50;28.27;;;18.60;42.70;;;;;;5051206;28;20563;-40
2022/03/08 08:36:51;;;;;;;27.87;26.77;;;18.60;43.00;;;;;;5051405;28;20448;-42
2022/03/08 08:39:19;;;;;;;30.03;28.63;;;18.80;42.80;;;;;;5051087;28;20445;-43
2022/03/08 08:41:46;;;;;;;27.67;26.47;;;19.00;42.60;;;;;;5051674;28;20535;-44
2022/03/08 08:44:13;;;;;;;27.97;26.77;;;19.10;42.30;;;;;;5050989;28;20854;-43
2022/03/08 08:46:40;;;;;;;28.13;26.93;;;19.30;42.10;;;;;;5051143;28;20480;-44
2022/03/08 08:49:06;;;;;;;28.60;27.40;;;19.30;41.90;;;;;;5051268;28;20456;-42
2022/03/08 08:51:34;;;;;;;27.57;26.37;;;19.40;41.70;;;;;;5051149;28;20444;-48
2022/03/08 08:54:01;;;;;;;27.80;26.60;;;19.50;41.60;;;;;;5051077;28;20475;-43
2022/03/08 08:56:29;;;;;;;27.57;26.47;;;19.50;41.50;;;;;;5053188;28;20444;-43
2022/03/08 08:58:56;;;;;;;27.27;26.17;;;19.50;41.30;;;;;;5054672;28;20459;-43
2022/03/08 09:01:23;;;;;;;27.37;26.27;;;19.60;41.20;;;;;;5054917;28;20448;-43
2022/03/08 09:03:49;;;;;;;27.73;26.50;;;19.60;41.10;;;;;;5055163;28;20491;-44
2022/03/08 09:06:16;;;;;;;28.13;26.93;;;19.60;41.20;;;;;;5054770;28;20476;-44
2022/03/08 09:08:43;;;;;;;27.87;26.70;;;19.60;41.10;;;;;;5054647;28;20817;-46
2022/03/08 09:11:11;;;;;;;28.03;26.83;;;19.60;41.00;;;;;;5054841;28;20451;-45
2022/03/08 09:13:40;;;;;;;26.53;25.40;;;19.70;40.90;;;;;;5054504;28;20555;-43
2022/03/08 09:16:08;;;;;;;27.47;26.47;;;19.60;40.80;;;;;;5054687;28;20460;-42
2022/03/08 09:18:34;;;;;;;27.23;26.13;;;19.60;40.80;;;;;;5054484;28;20444;-43
2022/03/08 09:21:01;;;;;;;28.03;26.90;;;19.60;40.80;;;;;;5054489;28;20448;-43
2022/03/08 09:23:28;;;;;;;27.80;26.70;;;19.60;40.70;;;;;;5054511;28;20452;-42
2022/03/08 09:25:55;;;;;;;27.80;26.70;;;19.60;40.60;;;;;;5054486;28;20482;-45
2022/03/08 09:28:21;;;;;;;27.63;26.60;;;19.60;40.60;;;;;;5054118;28;20440;-42
2022/03/08 09:30:50;;;;;;;26.00;25.00;;;19.70;40.60;;;;;;5054332;28;20831;-43
2022/03/08 09:33:16;;;;;;;28.70;27.60;;;19.70;40.50;;;;;;5054319;28;20455;-44
2022/03/08 09:35:43;;;;;;;27.60;26.50;;;19.70;40.40;;;;;;5054327;28;20450;-43
2022/03/08 09:38:11;;;;;;;28.07;26.87;;;19.70;40.40;;;;;;5054035;28;20805;-43
2022/03/08 09:40:38;;;;;;;26.10;25.00;;;19.70;40.30;;;;;;5054298;28;20452;-43
2022/03/08 09:43:05;;;;;;;27.23;26.07;;;19.70;40.30;;;;;;5054089;28;20445;-43
2022/03/08 09:45:33;;;;;;;26.40;25.33;;;19.70;40.30;;;;;;5053942;28;20472;-43
2022/03/08 09:48:01;;;;;;;24.83;23.93;;;19.70;40.30;;;;;;5053843;28;20527;-43
2022/03/08 09:50:29;;;;;;;26.50;25.50;;;19.70;40.20;;;;;;5053947;28;20463;-42
2022/03/08 09:52:57;;;;;;;25.70;24.70;;;19.70;40.20;;;;;;5053890;28;20448;-41
2022/03/08 09:55:25;;;;;;;25.50;24.50;;;19.60;40.10;;;;;;5053855;28;20468;-43
2022/03/08 09:57:53;;;;;;;26.13;25.13;;;19.60;40.10;;;;;;5053678;28;20448;-43
2022/03/08 10:00:23;;;;;;;26.80;25.70;;;19.60;40.10;;;;;;5053753;28;20810;-42
2022/03/08 10:02:51;;;;;;;25.73;24.73;;;19.60;40.10;;;;;;5053907;28;20510;-43
2022/03/08 10:05:23;;;;;;;26.00;25.00;;;19.60;40.10;;;;;;5053582;28;20464;-42
2022/03/08 10:08:10;;;;;;;24.90;23.90;;;19.60;40.10;;;;;;5052645;28;20488;-47
2022/03/08 10:10:44;;;;;;;25.90;24.90;;;19.60;40.10;;;;;;5053545;28;20527;-42
2022/03/08 10:13:11;;;;;;;25.27;24.27;;;19.50;40.00;;;;;;5053893;28;20467;-42
2022/03/08 10:15:38;;;;;;;25.90;24.90;;;19.50;40.00;;;;;;5053477;28;20464;-43
2022/03/08 10:18:05;;;;;;;25.17;24.17;;;19.50;40.10;;;;;;5053294;28;20441;-42
2022/03/08 10:20:34;;;;;;;25.20;24.20;;;19.50;40.10;;;;;;5053676;28;20445;-42
2022/03/08 10:23:02;;;;;;;27.73;26.60;;;19.50;40.10;;;;;;5053369;28;20451;-42
2022/03/08 10:25:31;;;;;;;26.87;25.87;;;19.40;40.00;;;;;;5053291;28;20479;-43
2022/03/08 10:28:03;;;;;;;27.07;26.07;;;19.50;40.20;;;;;;5053032;28;20662;-40
2022/03/08 10:30:46;;;;;;;27.30;26.20;;;19.60;40.20;;;;;;5053192;28;20440;-40
2022/03/08 10:33:19;;;;;;;28.80;27.80;;;19.70;40.10;;;;;;5053196;28;20810;-40
2022/03/08 10:35:49;;;;;;;26.23;25.23;;;20.00;40.00;;;;;;5053188;28;20498;-42
2022/03/08 10:38:16;;;;;;;27.20;26.20;;;20.10;39.70;;;;;;5052990;28;20472;-42
2022/03/08 10:40:44;;;;;;;28.50;27.40;;;20.20;39.40;;;;;;5052512;28;20470;-45
2022/03/08 10:43:13;;;;;;;27.13;26.13;;;20.30;39.30;;;;;;5044247;28;20440;-44
2022/03/08 10:45:43;;;;;;;28.20;27.10;;;20.40;39.20;;;;;;5052025;28;20473;-43
2022/03/08 10:48:13;;;;;;;27.60;26.50;;;20.30;39.00;;;;;;5052895;28;20541;-44
2022/03/08 10:50:41;;;;;;;28.03;26.93;;;20.30;39.20;;;;;;5052974;28;20935;-44
2022/03/08 10:53:11;;;;;;;27.10;26.10;;;20.30;39.50;;;;;;5052849;28;20444;-44
2022/03/08 10:55:39;;;;;;;28.17;27.13;;;20.30;39.60;;;;;;5052614;28;21049;-44
2022/03/08 10:58:07;;;;;;;25.15;24.15;;;20.30;39.60;;;;;;5052064;28;20775;-43
2022/03/08 11:00:38;;;;;;;29.00;27.80;;;20.30;39.70;;;;;;5052763;28;20205;-43
2022/03/08 11:03:07;;;;;;;24.83;23.92;;;20.40;39.70;;;;;;5051668;28;20991;-45
2022/03/08 11:05:35;;;;;;;26.13;25.13;;;20.40;39.60;;;;;;5052609;28;20316;-43
2022/03/08 11:08:03;;;;;;;28.37;27.23;;;20.40;39.40;;;;;;5052658;28;20478;-44
2022/03/08 11:10:32;;;;;;;27.40;26.40;;;20.40;39.40;;;;;;5052588;28;20941;-46
2022/03/08 11:13:00;;;;;;;25.67;24.57;;;20.40;39.50;;;;;;5052205;28;20531;-46
2022/03/08 11:15:29;;;;;;;28.27;27.17;;;20.40;39.70;;;;;;5052243;28;20534;-45
2022/03/08 11:17:57;;;;;;;28.13;27.03;;;20.40;39.70;;;;;;5052371;28;20198;-43
2022/03/08 11:20:26;;;;;;;27.70;26.60;;;20.40;39.80;;;;;;5052242;28;20448;-43
2022/03/08 11:22:55;;;;;;;28.23;27.00;;;20.40;39.70;;;;;;5051729;28;20455;-44
2022/03/08 11:25:26;;;;;;;27.63;26.53;;;20.50;39.80;;;;;;5052021;28;20471;-43
2022/03/08 11:27:55;;;;;;;26.60;25.60;;;20.50;39.70;;;;;;5052018;28;20487;-44
2022/03/08 11:30:25;;;;;;;27.40;26.30;;;20.50;39.70;;;;;;5052065;28;20452;-46
2022/03/08 11:33:00;;;;;;;27.10;26.07;;;20.60;39.70;;;;;;5052173;28;20463;-43
2022/03/08 11:35:32;;;;;;;28.23;27.13;;;20.60;39.60;;;;;;5051962;28;20494;-43
2022/03/08 11:38:00;;;;;;;27.70;26.60;;;20.70;39.50;;;;;;5052060;28;20440;-43
2022/03/08 11:40:27;;;;;;;28.00;26.93;;;20.80;39.40;;;;;;5051858;28;21034;-43
2022/03/08 11:43:03;;;;;;;29.40;28.30;;;21.00;39.40;;;;;;5051405;28;20456;-43
2022/03/08 11:45:31;;;;;;;28.30;27.23;;;21.40;39.70;;;;;;5051534;28;20474;-44
2022/03/08 11:48:00;;;;;;;29.00;27.90;;;22.30;38.80;;;;;;5051557;28;20484;-45
2022/03/08 11:50:31;;;;;;;29.03;27.93;;;23.90;38.00;;;;;;5051752;28;20910;-44
2022/03/08 11:53:07;;;;;;;30.40;29.20;;;25.20;35.40;;;;;;5051453;28;20547;-42
2022/03/08 11:55:35;;;;;;;30.40;29.30;;;26.10;33.70;;;;;;5051614;28;21004;-43
2022/03/08 11:58:05;;;;;;;28.40;27.30;;;27.00;32.50;;;;;;5069785;22;20485;-47
2022/03/08 12:00:41;;;;;;;29.90;28.70;;;27.80;31.20;;;;;;5039880;28;20803;-48
2022/03/08 12:03:14;;;;;;;31.07;29.87;;;28.40;30.20;;;;;;5031847;28;20456;-49
2022/03/08 12:05:57;;;;;;;30.57;29.40;;;29.00;29.60;;;;;;5031663;28;20455;-45
2022/03/08 12:09:01;;;;;;;28.70;27.60;;;29.40;28.90;;;;;;5031498;28;20484;-48
2022/03/08 12:11:40;;;;;;;29.97;28.77;;;29.70;28.40;;;;;;5031578;28;20441;-48
2022/03/08 12:14:14;;;;;;;28.97;27.87;;;29.90;28.10;;;;;;5031797;28;20466;-46
2022/03/08 12:16:43;;;;;;;28.90;27.80;;;30.10;27.80;;;;;;5031579;28;20457;-46
2022/03/08 12:19:11;;;;;;;29.60;28.40;;;30.20;27.50;;;;;;5031323;28;20934;-48
2022/03/08 12:21:53;;;;;;;28.63;27.53;;;30.40;27.30;;;;;;5031667;28;20448;-47
2022/03/08 12:24:21;;;;;;;31.37;30.17;;;30.40;27.10;;;;;;5031547;28;20938;-49
2022/03/08 12:27:00;;;;;;;29.80;28.70;;;30.60;26.90;;;;;;5031499;28;20970;-49
2022/03/08 12:29:30;;;;;;;30.63;29.43;;;30.80;26.70;;;;;;5031325;28;20467;-48
2022/03/08 12:32:25;;;;;;;29.73;28.63;;;31.00;26.60;;;;;;5034383;28;20944;-46